Time;durP1;ratioP1;P1;durP2;ratioP2;P2;SDS_P1;SDS_P2;PMS_P1;PMS_P2;Temp;Humidity;BMP_temperature;BMP_pressure;BME280_temperature;BME280_humidity;BME280_pressure;Samples;Min_cycle;Max_cycle;Signal;HPM_P1;HPM_P2
2022/08/25 00:00:57;;;;;;;18.10;3.90;;;;;;;21.05;73.55;100434.42;106263;1270;138402;-81
2022/08/25 00:03:29;;;;;;;11.80;3.70;;;;;;;21.05;73.60;100434.23;106281;1270;108728;-81
2022/08/25 00:06:10;;;;;;;11.80;3.60;;;;;;;21.06;73.92;100432.23;106207;1271;96590;-80
2022/08/25 00:08:43;;;;;;;8.90;3.70;;;;;;;21.04;73.88;100425.77;106297;1270;96466;-81
2022/08/25 00:11:18;;;;;;;11.70;3.50;;;;;;;21.04;74.06;100421.36;106277;1270;110228;-80
2022/08/25 00:13:54;;;;;;;10.30;3.40;;;;;;;21.05;74.06;100417.94;106182;1270;139507;-80
2022/08/25 00:16:28;;;;;;;10.30;3.60;;;;;;;21.05;74.21;100414.25;106305;1270;108940;-80
2022/08/25 00:19:05;;;;;;;10.90;3.30;;;;;;;21.05;74.33;100412.80;106172;1270;138356;-80
2022/08/25 00:21:39;;;;;;;10.10;3.50;;;;;;;21.06;74.10;100412.09;106300;1270;96511;-80
2022/08/25 00:24:13;;;;;;;9.90;3.80;;;;;;;21.06;74.18;100408.66;106250;1270;138589;-77
2022/08/25 00:26:48;;;;;;;9.60;3.60;;;;;;;21.07;74.35;100401.17;106322;1270;109800;-82
2022/08/25 00:29:21;;;;;;;14.80;3.90;;;;;;;21.08;74.48;100399.19;106382;1270;108821;-80
2022/08/25 00:31:55;;;;;;;17.50;3.80;;;;;;;21.07;74.66;100400.09;106220;1270;138662;-81
2022/08/25 00:34:33;;;;;;;9.00;3.40;;;;;;;21.08;74.57;100395.63;106333;1270;96455;-80
2022/08/25 00:37:08;;;;;;;9.90;3.60;;;;;;;21.10;74.72;100391.61;107569;1270;138317;-81
2022/08/25 00:39:40;;;;;;;11.90;4.30;;;;;;;21.12;74.72;100393.71;106511;1270;108864;-81
2022/08/25 00:42:13;;;;;;;13.80;3.90;;;;;;;21.15;74.75;100392.30;107596;1270;138564;-81
2022/08/25 00:44:47;;;;;;;12.40;3.60;;;;;;;21.18;74.81;100390.67;106509;1271;96518;-81
2022/08/25 00:47:20;;;;;;;13.00;3.90;;;;;;;21.21;75.03;100387.98;107029;1270;96315;-81
2022/08/25 00:49:57;;;;;;;7.10;3.10;;;;;;;21.24;74.83;100390.61;107733;1270;138635;-81
2022/08/25 00:52:32;;;;;;;11.10;3.60;;;;;;;21.26;74.85;100390.32;107812;1271;108952;-82
2022/08/25 00:55:09;;;;;;;13.20;4.70;;;;;;;21.29;74.82;100393.95;107737;1268;138622;-82
2022/08/25 00:57:44;;;;;;;10.80;3.70;;;;;;;21.32;74.81;100396.92;106845;1270;97156;-81
2022/08/25 01:00:21;;;;;;;13.20;4.10;;;;;;;21.34;75.04;100390.70;106255;1270;139159;-81
2022/08/25 01:02:56;;;;;;;13.70;4.00;;;;;;;21.38;75.18;100384.78;106758;1271;111401;-81
2022/08/25 01:05:32;;;;;;;12.10;3.90;;;;;;;21.40;74.93;100383.05;106338;1271;108701;-81
2022/08/25 01:08:07;;;;;;;15.00;4.20;;;;;;;21.41;75.03;100383.47;106152;1270;138610;-81
2022/08/25 01:10:44;;;;;;;13.30;4.30;;;;;;;21.43;74.79;100385.47;107760;1270;95793;-82
2022/08/25 01:13:20;;;;;;;12.80;3.80;;;;;;;21.46;75.04;100382.80;106172;1270;138229;-82
2022/08/25 01:15:56;;;;;;;15.20;4.30;;;;;;;21.46;74.94;100390.23;107392;1270;111016;-83
2022/08/25 01:18:29;;;;;;;13.10;4.30;;;;;;;21.46;75.04;100388.77;105424;1270;1437283;-82
2022/08/25 01:21:01;;;;;;;16.00;4.30;;;;;;;21.47;75.13;100391.15;106272;1270;108517;-82
2022/08/25 01:23:33;;;;;;;14.20;4.30;;;;;;;21.49;75.08;100385.74;107177;1270;94940;-82
2022/08/25 01:26:10;;;;;;;14.50;4.10;;;;;;;21.50;75.28;100383.53;107172;1270;140633;-82
2022/08/25 01:31:33;;;;;;;13.90;4.40;;;;;;;21.48;75.17;100379.59;106441;1270;138275;-81
2022/08/25 01:34:06;;;;;;;9.50;4.60;;;;;;;21.47;75.39;100379.11;107838;1270;106857;-81
2022/08/25 01:36:39;;;;;;;16.80;4.40;;;;;;;21.47;75.39;100385.38;107739;1270;139524;-81
2022/08/25 01:39:12;;;;;;;12.20;4.70;;;;;;;21.47;75.35;100383.96;107846;1270;94551;-81
2022/08/25 01:41:58;;;;;;;15.10;4.50;;;;;;;21.46;75.45;100380.10;107851;1270;111295;-81
2022/08/25 01:44:30;;;;;;;17.20;5.30;;;;;;;21.47;75.50;100375.92;107736;1270;140163;-82
2022/08/25 01:47:04;;;;;;;14.00;4.40;;;;;;;21.50;75.76;100376.11;106405;1271;109042;-82
2022/08/25 01:49:37;;;;;;;13.00;5.10;;;;;;;21.52;75.66;100379.51;106230;1270;139463;-81
2022/08/25 01:52:15;;;;;;;13.00;4.70;;;;;;;21.54;75.68;100379.66;106327;1270;96484;-81
2022/08/25 01:54:47;;;;;;;15.40;5.00;;;;;;;21.57;75.68;100377.66;106576;1270;138548;-81
2022/08/25 01:57:20;;;;;;;13.30;4.70;;;;;;;21.60;75.63;100380.86;107862;1270;108836;-80
2022/08/25 01:59:52;;;;;;;15.70;5.40;;;;;;;21.59;75.56;100373.78;106908;1270;109100;-81
2022/08/25 02:02:25;;;;;;;13.60;6.00;;;;;;;21.61;75.86;100372.58;106886;1270;138603;-82
2022/08/25 02:04:57;;;;;;;16.80;5.50;;;;;;;21.63;75.71;100372.64;107520;1270;96567;-82
2022/08/25 02:07:30;;;;;;;15.20;6.20;;;;;;;21.64;75.92;100372.70;106303;1270;140079;-81
2022/08/25 02:10:03;;;;;;;16.10;6.30;;;;;;;21.66;75.96;100373.77;107401;1270;109106;-82
2022/08/25 02:12:36;;;;;;;20.30;7.30;;;;;;;21.67;75.78;100369.46;107201;1270;139184;-81
2022/08/25 02:15:10;;;;;;;23.00;7.30;;;;;;;21.67;75.86;100368.60;106441;1270;96471;-82
2022/08/25 02:17:42;;;;;;;18.00;6.80;;;;;;;21.66;75.91;100364.09;107845;1270;94370;-82
2022/08/25 02:20:14;;;;;;;21.90;7.20;;;;;;;21.67;75.81;100365.08;106381;1270;138235;-82
2022/08/25 02:22:46;;;;;;;17.80;6.80;;;;;;;21.66;75.95;100361.74;106212;1271;108905;-82
2022/08/25 02:25:28;;;;;;;19.10;6.90;;;;;;;21.66;76.16;100365.34;107213;1270;138335;-82
2022/08/25 02:28:01;;;;;;;18.40;6.40;;;;;;;21.65;76.26;100363.10;106271;1270;97105;-82
2022/08/25 02:30:34;;;;;;;16.10;5.70;;;;;;;21.65;76.33;100361.84;106842;1271;138448;-82
2022/08/25 02:33:07;;;;;;;23.10;6.30;;;;;;;21.64;76.40;100362.80;107859;1270;110103;-82
2022/08/25 02:35:40;;;;;;;18.10;6.10;;;;;;;21.63;76.47;100362.15;107878;1270;109220;-82
2022/08/25 02:38:12;;;;;;;17.90;6.10;;;;;;;21.62;76.61;100362.05;107659;1271;139153;-82
2022/08/25 02:40:44;;;;;;;16.00;6.10;;;;;;;21.61;76.76;100365.14;107838;1270;94675;-82
2022/08/25 02:43:16;;;;;;;17.80;6.10;;;;;;;21.61;76.78;100364.10;107771;1270;138181;-82
2022/08/25 02:45:48;;;;;;;19.60;6.50;;;;;;;21.60;76.84;100363.81;107895;1270;111090;-82
2022/08/25 02:48:22;;;;;;;15.00;5.60;;;;;;;21.60;76.88;100360.96;106268;1270;138713;-82
2022/08/25 02:50:54;;;;;;;19.10;6.70;;;;;;;21.61;76.93;100358.44;106276;1270;107407;-82
2022/08/25 02:53:27;;;;;;;19.20;6.60;;;;;;;21.62;77.07;100361.91;106164;1271;97066;-82
2022/08/25 02:55:59;;;;;;;21.90;6.20;;;;;;;21.65;77.02;100362.39;106174;1270;138421;-81
2022/08/25 02:58:32;;;;;;;18.80;5.90;;;;;;;21.65;77.00;100363.07;106872;1270;110900;-82
2022/08/25 03:01:04;;;;;;;22.30;6.60;;;;;;;21.65;77.03;100363.10;107743;1270;138694;-82
2022/08/25 03:03:36;;;;;;;18.30;6.30;;;;;;;21.64;77.26;100365.27;106901;1270;108783;-81
2022/08/25 03:06:12;;;;;;;18.20;6.40;;;;;;;21.66;77.31;100360.73;106319;1270;96505;-81
2022/08/25 03:08:45;;;;;;;16.80;6.00;;;;;;;21.68;77.47;100366.72;107230;1270;95080;-82
2022/08/25 03:11:18;;;;;;;18.50;6.10;;;;;;;21.71;77.28;100364.72;106307;1268;111368;-82
2022/08/25 03:13:50;;;;;;;15.80;6.00;;;;;;;21.73;77.33;100373.86;107776;1270;138848;-82
2022/08/25 03:16:23;;;;;;;16.50;6.20;;;;;;;21.74;77.31;100373.77;106710;1270;108778;-82
2022/08/25 03:18:59;;;;;;;22.70;7.20;;;;;;;21.75;77.33;100371.89;106121;1271;140125;-82
2022/08/25 03:21:32;;;;;;;17.90;6.10;;;;;;;21.75;77.13;100364.48;106349;1270;96475;-82
2022/08/25 03:24:05;;;;;;;19.10;6.60;;;;;;;21.75;77.33;100360.04;106347;1270;111674;-82
2022/08/25 03:26:55;;;;;;;19.60;6.10;;;;;;;21.77;77.32;100361.33;106852;1270;108887;-83
2022/08/25 03:29:31;;;;;;;19.20;5.90;;;;;;;21.76;77.13;100359.42;106451;1270;107620;-81
2022/08/25 03:32:04;;;;;;;17.40;6.40;;;;;;;21.74;77.15;100354.13;106154;1270;139537;-82
2022/08/25 03:34:36;;;;;;;22.60;7.20;;;;;;;21.73;77.22;100355.09;106340;1270;96501;-82
2022/08/25 03:37:08;;;;;;;19.90;6.60;;;;;;;21.73;77.29;100354.90;106191;1270;138272;-82
2022/08/25 03:39:41;;;;;;;22.80;6.70;;;;;;;21.73;77.22;100354.73;106333;1270;107307;-83
2022/08/25 03:42:13;;;;;;;24.80;6.90;;;;;;;21.73;77.23;100356.48;106136;1271;140283;-81
2022/08/25 03:44:45;;;;;;;19.20;6.20;;;;;;;21.74;77.21;100358.88;106265;1270;96546;-82
2022/08/25 03:47:17;;;;;;;19.00;6.60;;;;;;;21.75;77.26;100362.86;106269;1271;96495;-82
2022/08/25 03:49:50;;;;;;;20.60;6.70;;;;;;;21.76;77.40;100364.94;106138;1270;138307;-82
2022/08/25 03:52:22;;;;;;;25.80;7.00;;;;;;;21.76;77.13;100360.52;106274;1270;108976;-82
2022/08/25 03:54:54;;;;;;;25.70;7.20;;;;;;;21.76;77.27;100359.47;106138;1270;139805;-82
2022/08/25 03:57:27;;;;;;;23.50;6.90;;;;;;;21.76;77.20;100357.32;106328;1270;96484;-82
2022/08/25 03:59:59;;;;;;;19.50;7.00;;;;;;;21.76;77.14;100356.23;107694;1270;94532;-85
2022/08/25 04:02:32;;;;;;;21.40;6.50;;;;;;;21.78;77.18;100353.45;107024;1270;138058;-82
2022/08/25 04:05:05;;;;;;;24.60;6.50;;;;;;;21.79;77.24;100356.01;107727;1270;108801;-83
2022/08/25 04:07:38;;;;;;;24.40;7.30;;;;;;;21.81;77.06;100355.16;107752;1270;138564;-84
2022/08/25 04:10:11;;;;;;;20.80;7.20;;;;;;;21.83;77.06;100358.35;106627;1270;96584;-83
2022/08/25 04:12:44;;;;;;;25.50;7.30;;;;;;;21.86;77.17;100357.44;106253;1270;141952;-82
2022/08/25 04:15:16;;;;;;;23.40;7.20;;;;;;;21.88;77.01;100360.42;106282;1270;110319;-83
2022/08/25 04:17:48;;;;;;;27.40;7.40;;;;;;;21.90;76.88;100355.33;106889;1270;109205;-84
2022/08/25 04:20:22;;;;;;;27.00;7.10;;;;;;;21.91;76.77;100354.75;107758;1270;138310;-84
2022/08/25 04:22:59;;;;;;;23.90;7.40;;;;;;;21.92;76.80;100353.55;107838;1270;94423;-83
2022/08/25 04:25:32;;;;;;;22.50;6.80;;;;;;;21.96;76.85;100350.08;106875;1270;138686;-83
2022/08/25 04:28:04;;;;;;;21.60;7.60;;;;;;;22.00;76.89;100351.13;106243;1270;109978;-84
2022/08/25 04:30:41;;;;;;;20.80;7.00;;;;;;;22.06;76.76;100353.92;106158;1270;138741;-83
2022/08/25 04:33:13;;;;;;;22.80;7.50;;;;;;;22.09;76.64;100352.79;107758;1268;108940;-84
2022/08/25 04:35:50;;;;;;;25.30;7.60;;;;;;;22.13;76.47;100355.89;107852;1270;94620;-84
2022/08/25 04:38:22;;;;;;;35.70;7.80;;;;;;;22.15;76.30;100362.40;106596;1270;139184;-85
2022/08/25 04:40:58;;;;;;;25.40;7.70;;;;;;;22.18;76.32;100358.81;107860;1270;110652;-84
2022/08/25 04:43:31;;;;;;;27.00;8.50;;;;;;;22.20;76.18;100354.92;107096;1270;138357;-84
2022/08/25 04:46:08;;;;;;;23.10;7.30;;;;;;;22.23;76.09;100352.34;106990;1270;108850;-83
2022/08/25 04:48:41;;;;;;;26.70;7.40;;;;;;;22.29;76.09;100353.89;106944;1270;139945;-84
2022/08/25 04:51:15;;;;;;;21.80;7.60;;;;;;;22.36;76.12;100351.91;106302;1270;96475;-83
2022/08/25 04:53:47;;;;;;;25.40;7.30;;;;;;;22.44;76.11;100352.55;107381;1270;111345;-84
2022/08/25 04:56:21;;;;;;;19.50;6.80;;;;;;;22.52;75.93;100349.95;107032;1269;138926;-83
2022/08/25 04:58:54;;;;;;;25.60;7.00;;;;;;;22.59;75.68;100347.91;106217;1270;108601;-83
2022/08/25 05:01:27;;;;;;;27.30;7.70;;;;;;;22.67;75.52;100339.48;107032;1270;139345;-83
2022/08/25 05:04:02;;;;;;;27.50;7.60;;;;;;;22.79;75.24;100341.17;107845;1270;94584;-83
2022/08/25 05:06:34;;;;;;;29.50;7.60;;;;;;;22.88;74.95;100339.33;107718;1270;142660;-83
2022/08/25 05:09:07;;;;;;;30.50;7.80;;;;;;;23.00;74.79;100339.13;107889;1270;107778;-83
2022/08/25 05:11:40;;;;;;;35.20;8.00;;;;;;;23.12;74.46;100337.01;107846;1270;108833;-83
2022/08/25 05:14:16;;;;;;;26.60;8.00;;;;;;;23.27;73.97;100340.44;107727;1270;139699;-83
2022/08/25 05:16:50;;;;;;;27.40;7.70;;;;;;;23.44;73.61;100337.13;107848;1270;94629;-83
2022/08/25 05:19:23;;;;;;;28.10;7.80;;;;;;;23.74;73.34;100337.32;107718;1270;138817;-83
2022/08/25 05:21:55;;;;;;;31.80;7.90;;;;;;;24.13;72.81;100340.31;106805;1270;108913;-82
2022/08/25 05:24:29;;;;;;;33.80;8.30;;;;;;;24.42;72.09;100338.67;106135;1271;138490;-83
2022/08/25 05:27:02;;;;;;;31.00;8.00;;;;;;;24.61;71.45;100342.45;106295;1270;96479;-83
2022/08/25 05:29:34;;;;;;;33.10;8.10;;;;;;;24.81;70.60;100340.68;106362;1270;96508;-82
2022/08/25 05:32:08;;;;;;;31.20;8.40;;;;;;;25.30;69.84;100338.38;106227;1270;138151;-82
2022/08/25 05:34:41;;;;;;;36.10;7.90;;;;;;;25.88;68.86;100339.20;106371;1270;107886;-82
2022/08/25 05:37:13;;;;;;;30.70;7.30;;;;;;;26.48;67.78;100334.86;106241;1270;138611;-83
2022/08/25 05:39:45;;;;;;;38.00;7.50;;;;;;;27.18;66.50;100330.45;106305;1270;96478;-82
2022/08/25 05:42:17;;;;;;;27.50;8.00;;;;;;;27.94;64.98;100329.27;106227;1270;138605;-81
2022/08/25 05:44:49;;;;;;;23.70;6.70;;;;;;;28.71;63.75;100325.11;106231;1271;111945;-81
2022/08/25 05:47:21;;;;;;;27.80;7.50;;;;;;;29.43;62.07;100328.17;106333;1270;107663;-80
2022/08/25 05:49:54;;;;;;;26.30;7.20;;;;;;;29.95;60.57;100333.89;106181;1270;138641;-80
2022/08/25 05:52:28;;;;;;;22.60;7.10;;;;;;;30.56;59.22;100335.13;106292;1271;96497;-80
2022/08/25 05:55:00;;;;;;;30.40;6.80;;;;;;;31.23;57.94;100333.16;106239;1270;137510;-79
2022/08/25 05:57:33;;;;;;;24.00;7.50;;;;;;;31.97;56.38;100331.85;106300;1270;111089;-80
2022/08/25 06:00:09;;;;;;;37.60;7.80;;;;;;;32.65;54.50;100332.27;106378;1270;108939;-83
2022/08/25 06:02:47;;;;;;;30.80;7.60;;;;;;;33.15;53.00;100331.50;106272;1270;108695;-81
2022/08/25 06:05:21;;;;;;;32.80;8.40;;;;;;;33.53;51.85;100332.16;106301;1270;96620;-81
2022/08/25 06:07:54;;;;;;;30.40;7.30;;;;;;;33.98;50.83;100329.11;106194;1270;137650;-80
2022/08/25 06:10:27;;;;;;;33.10;7.30;;;;;;;34.50;49.77;100327.10;106305;1270;111178;-80
2022/08/25 06:12:59;;;;;;;28.40;6.90;;;;;;;34.99;48.25;100325.70;106078;1271;137855;-80
2022/08/25 06:15:32;;;;;;;30.10;7.60;;;;;;;35.42;47.40;100324.20;106348;1270;107596;-80
2022/08/25 06:18:06;;;;;;;29.30;7.40;;;;;;;35.81;46.57;100324.95;106220;1270;96950;-81
2022/08/25 06:20:38;;;;;;;33.00;8.20;;;;;;;36.11;45.38;100326.38;106308;1270;96595;-81
2022/08/25 06:23:11;;;;;;;36.50;8.90;;;;;;;36.25;44.49;100330.59;106358;1270;111111;-82
2022/08/25 06:25:51;;;;;;;34.20;8.50;;;;;;;36.42;43.64;100334.48;106269;1270;137618;-81
2022/08/25 06:28:23;;;;;;;36.50;9.90;;;;;;;36.47;43.16;100336.68;107843;1271;108805;-82
2022/08/25 06:31:00;;;;;;;32.00;8.90;;;;;;;36.34;42.83;100342.36;106552;1270;138443;-82
2022/08/25 06:33:32;;;;;;;25.70;7.20;;;;;;;36.17;42.09;100342.40;106277;1270;96340;-82
2022/08/25 06:36:06;;;;;;;30.60;8.10;;;;;;;35.68;41.96;100344.23;106349;1270;111086;-81
2022/08/25 06:38:38;;;;;;;28.20;7.90;;;;;;;35.09;42.40;100345.66;106351;1270;108863;-81
2022/08/25 06:41:12;;;;;;;35.00;7.40;;;;;;;34.67;42.76;100349.41;106210;1270;109214;-83
2022/08/25 06:43:45;;;;;;;32.30;8.50;;;;;;;34.49;43.13;100349.23;106099;1270;137727;-82
2022/08/25 06:46:26;;;;;;;24.50;8.60;;;;;;;34.48;43.16;100348.77;106290;1270;96557;-82
2022/08/25 06:49:08;;;;;;;30.90;8.40;;;;;;;34.36;43.14;100345.91;106167;1270;137492;-82
2022/08/25 06:51:41;;;;;;;36.10;9.10;;;;;;;34.11;43.44;100346.89;106184;1271;107068;-83
2022/08/25 06:54:13;;;;;;;28.60;8.00;;;;;;;33.81;43.68;100342.17;106088;1270;137934;-80
2022/08/25 06:56:46;;;;;;;33.80;7.90;;;;;;;33.51;43.58;100347.91;106235;1270;96595;-83
2022/08/25 06:59:21;;;;;;;28.40;8.00;;;;;;;33.23;43.55;100345.02;106291;1270;96485;-84
2022/08/25 07:01:56;;;;;;;32.20;8.10;;;;;;;32.96;43.81;100353.48;106074;1270;138053;-82
2022/08/25 07:04:30;;;;;;;33.60;7.60;;;;;;;32.69;43.94;100355.66;106207;1270;108467;-83
2022/08/25 07:07:03;;;;;;;31.00;8.30;;;;;;;32.44;44.18;100351.66;106002;1271;138717;-81
2022/08/25 07:09:35;;;;;;;31.70;7.40;;;;;;;32.17;44.40;100356.66;106303;1270;96575;-83
2022/08/25 07:12:10;;;;;;;30.50;8.30;;;;;;;31.96;44.67;100359.41;106275;1270;96483;-82
2022/08/25 07:14:43;;;;;;;29.90;7.50;;;;;;;31.79;45.13;100357.20;106228;1270;111115;-82
2022/08/25 07:17:34;;;;;;;24.00;7.30;;;;;;;31.63;45.54;100362.02;106182;1271;108881;-76
2022/08/25 07:20:08;;;;;;;30.30;7.90;;;;;;;31.59;46.13;100364.56;106468;1270;139060;-91
2022/08/25 07:22:44;;;;;;;30.50;8.30;;;;;;;31.64;46.22;100366.77;106647;1271;96470;-91
2022/08/25 07:25:16;;;;;;;32.80;7.80;;;;;;;31.69;45.82;100369.84;106396;1270;137600;-88
2022/08/25 07:27:48;;;;;;;26.10;7.70;;;;;;;31.82;45.72;100369.06;106372;1270;111182;-89
2022/08/25 07:30:21;;;;;;;28.40;7.30;;;;;;;32.01;45.46;100371.92;106237;1271;137820;-90
2022/08/25 07:32:53;;;;;;;36.90;7.80;;;;;;;32.16;44.93;100369.74;106474;1270;107875;-90
2022/08/25 07:35:26;;;;;;;30.90;8.20;;;;;;;32.38;45.45;100368.33;106941;1270;96481;-88
2022/08/25 07:38:09;;;;;;;30.30;8.60;;;;;;;32.68;45.31;100370.67;106265;1271;137557;-90
2022/08/25 07:40:53;;;;;;;32.90;7.60;;;;;;;32.96;44.45;100371.61;106381;1270;111907;-90
2022/08/25 07:43:28;;;;;;;30.40;8.00;;;;;;;33.14;43.61;100372.83;106186;1273;137757;-88
2022/08/25 07:46:00;;;;;;;33.40;8.10;;;;;;;33.25;43.38;100372.08;106435;1270;108969;-90
2022/08/25 07:48:32;;;;;;;25.90;8.30;;;;;;;33.37;43.60;100369.23;107025;1271;137792;-88
2022/08/25 07:51:11;;;;;;;32.70;8.40;;;;;;;33.49;43.24;100370.06;106581;1270;96488;-89
2022/08/25 07:53:43;;;;;;;26.40;7.70;;;;;;;33.65;43.46;100372.44;107870;1270;110882;-89
2022/08/25 07:56:17;;;;;;;32.90;7.20;;;;;;;33.88;42.85;100374.34;106427;1271;139425;-89
2022/08/25 07:58:49;;;;;;;26.40;7.50;;;;;;;34.06;42.82;100374.92;107003;1270;108857;-88
2022/08/25 08:01:24;;;;;;;24.20;7.30;;;;;;;34.40;42.40;100380.91;107583;1268;138044;-90
2022/08/25 08:03:57;;;;;;;32.60;7.80;;;;;;;34.74;41.75;100381.16;107288;1270;96485;-90
2022/08/25 08:06:34;;;;;;;31.70;7.40;;;;;;;35.20;41.51;100379.67;106324;1270;137679;-89
2022/08/25 08:09:07;;;;;;;21.40;7.60;;;;;;;35.79;41.22;100377.38;107045;1270;108862;-89
2022/08/25 08:11:43;;;;;;;30.30;7.90;;;;;;;36.58;40.17;100377.69;106380;1270;108711;-88
2022/08/25 08:14:25;;;;;;;33.30;6.80;;;;;;;37.58;39.03;100380.16;107200;1270;137877;-89
2022/08/25 08:16:57;;;;;;;30.20;7.60;;;;;;;38.36;38.02;100377.95;107580;1270;96465;-90
2022/08/25 08:19:29;;;;;;;29.20;7.60;;;;;;;39.09;36.62;100375.55;107379;1270;137839;-90
2022/08/25 08:22:02;;;;;;;30.40;7.70;;;;;;;39.76;35.69;100373.21;107607;1271;107847;-90
2022/08/25 08:24:37;;;;;;;29.60;7.00;;;;;;;40.30;34.62;100369.46;106978;1270;139833;-86
2022/08/25 08:27:25;;;;;;;30.80;7.90;;;;;;;40.91;34.09;100370.21;106376;1270;96457;-87
2022/08/25 08:29:57;;;;;;;31.50;7.20;;;;;;;41.34;33.16;100371.27;106225;1271;96388;-88
2022/08/25 08:32:29;;;;;;;34.70;8.10;;;;;;;41.72;32.89;100371.41;106214;1271;139075;-89
2022/08/25 08:35:22;;;;;;;34.60;8.50;;;;;;;42.14;32.15;100371.20;106364;1270;108871;-89
2022/08/25 08:37:54;;;;;;;33.80;7.40;;;;;;;42.38;31.46;100375.02;106238;1270;137047;-88
2022/08/25 08:40:26;;;;;;;29.40;7.20;;;;;;;42.58;31.22;100367.29;106360;1270;96503;-88
2022/08/25 08:43:06;;;;;;;30.90;7.20;;;;;;;42.75;30.82;100372.28;106278;1270;137941;-90
2022/08/25 08:45:52;;;;;;;29.40;6.90;;;;;;;43.00;30.72;100370.09;107823;1271;110673;-89
2022/08/25 08:49:00;;;;;;;35.40;7.20;;;;;;;43.16;30.46;100365.02;107275;1270;137981;-89
2022/08/25 08:51:38;;;;;;;30.10;7.40;;;;;;;43.10;29.88;100364.39;105951;1275;107932;-88
2022/08/25 08:54:17;;;;;;;32.00;7.40;;;;;;;43.13;29.83;100364.52;106017;1275;96582;-89
2022/08/25 08:56:55;;;;;;;29.50;7.00;;;;;;;42.89;29.37;100359.61;106042;1274;96683;-89
2022/08/25 08:59:33;;;;;;;29.90;7.00;;;;;;;42.61;29.42;100363.14;106124;1276;111151;-86
2022/08/25 09:02:12;;;;;;;25.60;7.30;;;;;;;42.46;29.63;100358.50;105861;1276;138387;-89
2022/08/25 09:04:48;;;;;;;28.50;6.90;;;;;;;42.44;29.67;100355.35;105929;1276;108626;-89
2022/08/25 09:07:27;;;;;;;24.50;7.90;;;;;;;42.31;29.64;100355.90;105837;1276;137641;-90
2022/08/25 09:10:00;;;;;;;27.60;7.80;;;;;;;42.13;29.71;100357.00;106568;1275;96504;-90
2022/08/25 09:12:39;;;;;;;35.70;7.80;;;;;;;42.11;29.85;100356.30;105990;1275;137700;-90
2022/08/25 09:16:53;;;;;;;28.10;8.10;;;;;;;42.31;29.79;100348.40;106084;1277;108817;-90
2022/08/25 09:18:29;;;;;;;29.30;7.40;;;;;;;42.63;29.82;100356.14;106397;1274;138045;-91
2022/08/25 09:21:13;;;;;;;31.70;7.30;;;;;;;42.83;29.56;100353.59;106749;1274;96541;-91
2022/08/25 09:24:03;;;;;;;25.60;7.50;;;;;;;42.91;29.35;100348.04;106015;1275;96671;-88
2022/08/25 09:26:39;;;;;;;33.00;7.50;;;;;;;43.06;29.47;100354.14;105924;1272;139177;-89
2022/08/25 09:29:14;;;;;;;29.30;7.10;;;;;;;43.19;29.48;100354.29;106425;1270;108719;-91
2022/08/25 09:31:49;;;;;;;28.00;7.10;;;;;;;43.27;29.00;100351.02;107678;1270;138596;-90
2022/08/25 09:34:28;;;;;;;29.40;7.30;;;;;;;43.40;28.84;100355.70;107834;1270;94771;-89
2022/08/25 09:37:01;;;;;;;27.50;8.00;;;;;;;43.54;28.63;100350.75;106158;1271;137598;-90
2022/08/25 09:39:33;;;;;;;34.90;7.90;;;;;;;43.58;28.17;100346.42;106350;1271;110166;-90
2022/08/25 09:42:06;;;;;;;31.60;8.10;;;;;;;43.63;28.06;100346.42;106259;1271;107871;-89
2022/08/25 09:44:43;;;;;;;33.20;7.30;;;;;;;43.62;28.09;100347.98;106530;1271;107862;-89
2022/08/25 09:47:24;;;;;;;34.10;8.20;;;;;;;43.63;27.96;100344.05;106653;1270;97236;-90
2022/08/25 09:50:01;;;;;;;26.50;8.20;;;;;;;43.64;27.96;100342.14;106157;1271;137549;-89
2022/08/25 09:52:38;;;;;;;34.10;7.60;;;;;;;43.75;28.06;100332.51;106222;1271;111317;-91
2022/08/25 09:55:34;;;;;;;34.30;7.70;;;;;;;43.84;27.77;100326.68;106083;1271;137853;-91
2022/08/25 09:58:18;;;;;;;26.40;7.40;;;;;;;43.89;27.47;100324.99;106269;1271;108807;-88
2022/08/25 10:01:13;;;;;;;32.10;9.30;;;;;;;43.95;27.18;100321.72;107733;1271;137908;-90
2022/08/25 10:04:04;;;;;;;23.10;7.30;;;;;;;43.98;27.18;100319.65;107319;1271;94844;-89
2022/08/25 10:06:47;;;;;;;25.10;6.00;;;;;;;43.86;26.10;100317.78;106122;1271;138268;-90
2022/08/25 10:09:31;;;;;;;24.30;6.70;;;;;;;43.76;25.54;100313.83;106250;1270;109012;-92
2022/08/25 10:12:19;;;;;;;29.80;6.90;;;;;;;43.72;25.33;100312.05;106400;1271;109009;-91
2022/08/25 10:14:58;;;;;;;24.00;6.60;;;;;;;43.55;25.04;100310.43;106320;1271;96637;-89
2022/08/25 10:17:32;;;;;;;15.80;4.90;;;;;;;43.48;25.00;100312.27;106857;1271;96610;-90
2022/08/25 10:20:19;;;;;;;19.50;5.20;;;;;;;43.51;24.66;100298.01;106247;1271;137674;-87
2022/08/25 10:23:08;;;;;;;26.00;5.90;;;;;;;43.58;24.72;100293.98;106412;1270;109552;-89
2022/08/25 10:25:48;;;;;;;18.60;5.20;;;;;;;43.64;24.28;100293.91;106190;1271;138805;-88
2022/08/25 10:28:38;;;;;;;12.70;4.70;;;;;;;43.63;23.72;100292.63;106380;1271;97137;-90
2022/08/25 10:31:20;;;;;;;15.90;4.90;;;;;;;43.57;23.23;100290.29;106254;1271;137526;-91
2022/08/25 10:34:06;;;;;;;16.30;5.00;;;;;;;43.56;23.08;100287.48;106412;1271;111184;-88
2022/08/25 10:36:49;;;;;;;17.70;5.20;;;;;;;43.29;21.52;100290.41;106924;1269;138188;-82
2022/08/25 10:39:36;;;;;;;17.50;4.80;;;;;;;42.82;21.61;100286.77;107443;1271;108952;-87
2022/08/25 10:42:28;;;;;;;17.00;4.80;;;;;;;42.58;21.98;100285.06;106440;1271;96475;-90
2022/08/25 10:48:18;;;;;;;13.00;4.30;;;;;;;41.90;20.63;100275.70;107847;1271;110592;-83
2022/08/25 10:50:59;;;;;;;17.90;4.70;;;;;;;41.40;21.52;100268.39;107863;1269;108870;-82
2022/08/25 10:53:46;;;;;;;15.00;3.80;;;;;;;41.19;20.56;100268.49;106346;1270;109725;-87
2022/08/25 10:56:24;;;;;;;10.00;3.50;;;;;;;40.87;20.51;100263.70;106172;1270;139030;-83
2022/08/25 10:59:26;;;;;;;10.80;3.40;;;;;;;40.81;21.05;100259.60;107903;1270;94566;-82
2022/08/25 11:02:28;;;;;;;13.80;3.50;;;;;;;40.71;20.58;100257.89;107737;1270;137479;-78
2022/08/25 11:05:06;;;;;;;10.60;3.40;;;;;;;40.52;20.54;100253.48;107842;1270;108811;-84
2022/08/25 11:07:43;;;;;;;10.20;2.60;;;;;;;40.13;18.97;100255.34;106668;1270;137591;-80
2022/08/25 11:10:19;;;;;;;15.10;3.70;;;;;;;39.54;18.59;100248.88;106324;1270;96485;-90
2022/08/25 11:12:54;;;;;;;15.70;3.50;;;;;;;39.17;19.59;100238.63;106972;1270;137737;-86
2022/08/25 11:15:29;;;;;;;15.90;3.40;;;;;;;39.05;19.97;100233.23;106632;1271;111102;-87
2022/08/25 11:18:07;;;;;;;15.80;3.60;;;;;;;38.88;19.51;100238.65;106577;1270;109068;-83
2022/08/25 11:20:51;;;;;;;16.80;3.30;;;;;;;38.52;20.00;100241.88;107324;1270;108842;-90
2022/08/25 11:23:28;;;;;;;7.60;3.00;;;;;;;38.29;20.10;100238.98;106395;1270;96468;-83
2022/08/25 11:26:09;;;;;;;9.70;3.20;;;;;;;38.28;20.48;100238.04;106321;1270;138859;-81
2022/08/25 11:28:54;;;;;;;14.40;4.20;;;;;;;38.16;19.95;100236.71;107329;1270;111435;-81
2022/08/25 11:31:28;;;;;;;11.90;3.30;;;;;;;37.76;20.68;100231.41;106330;1270;137792;-87
2022/08/25 11:34:01;;;;;;;11.90;3.70;;;;;;;37.77;21.44;100230.58;106340;1270;109087;-87
2022/08/25 11:36:36;;;;;;;10.40;3.30;;;;;;;37.83;21.16;100228.23;106258;1270;137909;-85
2022/08/25 11:39:21;;;;;;;16.30;3.40;;;;;;;37.76;21.30;100230.79;106493;1270;96478;-84
2022/08/25 11:42:08;;;;;;;13.50;3.20;;;;;;;37.70;20.38;100239.27;106430;1270;111059;-83
2022/08/25 11:44:50;;;;;;;13.40;3.30;;;;;;;37.33;19.97;100231.39;106970;1270;107865;-85
2022/08/25 11:47:50;;;;;;;10.60;3.00;;;;;;;37.00;19.73;100235.15;107856;1270;109043;-74
2022/08/25 11:50:31;;;;;;;17.90;3.60;;;;;;;36.50;20.22;100233.80;106774;1270;137639;-80